Time;durP1;ratioP1;P1;durP2;ratioP2;P2;SDS_P1;SDS_P2;PMS_P1;PMS_P2;Temp;Humidity;BMP_temperature;BMP_pressure;BME280_temperature;BME280_humidity;BME280_pressure;Samples;Min_cycle;Max_cycle;Signal;HPM_P1;HPM_P2
2023/07/26 00:00:34;;;;;;;14.57;13.07;;;;;;;19.45;61.95;98320.41;6970446;28;20383;-83
2023/07/26 00:03:58;;;;;;;16.67;13.83;;;;;;;19.03;62.68;98254.19;6971722;28;20206;-82
2023/07/26 00:07:19;;;;;;;15.80;12.97;;;;;;;19.61;62.59;98324.75;6971043;28;20241;-82
2023/07/26 00:10:46;;;;;;;13.87;11.87;;;;;;;19.75;61.32;98328.59;6971348;28;20281;-83
2023/07/26 00:14:08;;;;;;;13.10;10.80;;;;;;;19.75;61.09;98312.97;6971246;28;20236;-82
2023/07/26 00:17:29;;;;;;;13.30;10.80;;;;;;;19.43;60.96;98270.63;6970541;28;20326;-83
2023/07/26 00:20:51;;;;;;;11.03;9.97;;;;;;;19.63;60.89;98331.59;6970668;28;20230;-82
2023/07/26 00:24:12;;;;;;;13.43;11.93;;;;;;;19.22;61.72;98332.66;6970930;28;20247;-82
2023/07/26 00:27:35;;;;;;;14.03;12.10;;;;;;;19.49;62.71;98332.41;6971236;28;20203;-83
2023/07/26 00:30:58;;;;;;;12.97;11.60;;;;;;;19.70;61.33;98332.13;6970753;28;20834;-82
2023/07/26 00:34:20;;;;;;;14.87;13.30;;;;;;;18.83;62.54;98300.59;6971751;28;20282;-82
2023/07/26 00:37:41;;;;;;;17.07;12.80;;;;;;;19.06;62.68;98341.94;6970297;28;20251;-84
2023/07/26 00:41:03;;;;;;;15.50;13.93;;;;;;;19.18;63.63;98339.75;6970439;28;20726;-83
2023/07/26 00:44:26;;;;;;;14.13;12.70;;;;;;;19.50;62.66;98334.03;6982137;28;20333;-81
2023/07/26 00:47:47;;;;;;;15.93;13.53;;;;;;;18.92;63.28;98315.38;6988310;28;20666;-82
2023/07/26 00:51:09;;;;;;;17.27;14.27;;;;;;;19.09;64.34;98352.28;6981794;28;20328;-82
2023/07/26 00:54:31;;;;;;;13.47;11.90;;;;;;;19.46;62.87;98320.09;6981853;28;20659;-82
2023/07/26 00:57:53;;;;;;;17.63;13.20;;;;;;;19.55;62.70;98318.47;6988108;28;20307;-80
2023/07/26 01:01:16;;;;;;;15.40;13.83;;;;;;;19.55;62.73;98353.19;6995008;28;20337;-81
2023/07/26 01:04:38;;;;;;;14.20;12.63;;;;;;;19.49;63.10;98346.09;6994706;28;20573;-81
2023/07/26 01:08:04;;;;;;;15.87;13.87;;;;;;;19.50;62.99;98344.97;6993967;28;20199;-82
2023/07/26 01:11:33;;;;;;;19.43;16.30;;;;;;;19.32;63.64;98351.00;6995984;28;20391;-80
2023/07/26 01:14:57;;;;;;;20.63;17.77;;;;;;;19.49;63.75;98357.03;6995231;28;20292;-81
2023/07/26 01:18:20;;;;;;;19.00;15.97;;;;;;;19.60;63.81;98353.19;6994991;28;20292;-83
2023/07/26 01:21:43;;;;;;;18.33;15.70;;;;;;;19.96;62.93;98358.38;7005969;28;20269;-82
2023/07/26 01:25:05;;;;;;;17.47;15.67;;;;;;;19.75;62.52;98334.06;7005555;28;20285;-82
2023/07/26 01:28:27;;;;;;;18.33;16.20;;;;;;;19.88;62.81;98349.91;7004169;28;20713;-82
2023/07/26 01:31:49;;;;;;;20.10;17.07;;;;;;;19.59;63.47;98357.88;7006358;28;20234;-82
2023/07/26 01:35:10;;;;;;;19.73;17.63;;;;;;;19.98;62.07;98371.78;7006325;28;20703;-83
2023/07/26 01:38:34;;;;;;;22.90;16.93;;;;;;;19.61;63.21;98361.13;7006248;28;20752;-82
2023/07/26 01:41:56;;;;;;;21.83;18.70;;;;;;;19.48;62.98;98356.22;7005999;28;20323;-82
2023/07/26 01:45:17;;;;;;;18.40;16.43;;;;;;;20.08;61.50;98367.16;7006349;28;20337;-83
2023/07/26 01:48:39;;;;;;;18.60;16.70;;;;;;;19.95;61.85;98366.84;7004948;28;20300;-82
2023/07/26 01:52:01;;;;;;;18.57;15.80;;;;;;;19.79;61.99;98367.97;7006661;28;20595;-83
2023/07/26 01:55:23;;;;;;;16.53;14.77;;;;;;;20.00;61.15;98369.59;7005524;28;20258;-84
2023/07/26 01:58:45;;;;;;;16.17;14.00;;;;;;;19.59;60.94;98368.81;7005052;28;20259;-83
2023/07/26 02:02:07;;;;;;;15.80;13.27;;;;;;;19.46;60.99;98372.06;7005318;28;20244;-83
2023/07/26 02:05:28;;;;;;;15.73;12.67;;;;;;;19.48;60.53;98372.63;7004432;28;20834;-82
2023/07/26 02:08:50;;;;;;;15.67;12.27;;;;;;;19.35;61.23;98377.78;7005116;28;20198;-82
2023/07/26 02:12:13;;;;;;;16.20;12.50;;;;;;;19.70;60.82;98381.38;7005158;28;20282;-82
2023/07/26 02:15:34;;;;;;;15.33;12.93;;;;;;;19.55;60.99;98359.50;7004360;28;20261;-82
2023/07/26 02:18:56;;;;;;;15.10;13.60;;;;;;;19.69;61.44;98360.56;7003838;28;20714;-82
2023/07/26 02:22:17;;;;;;;14.83;13.23;;;;;;;19.77;61.45;98386.56;7004804;28;20269;-83
2023/07/26 02:25:39;;;;;;;15.97;13.37;;;;;;;19.52;61.43;98367.44;7004081;28;20210;-82
2023/07/26 02:29:02;;;;;;;15.23;12.43;;;;;;;19.63;61.72;98388.22;7009235;28;20218;-81
2023/07/26 02:32:23;;;;;;;12.87;11.47;;;;;;;19.76;59.86;98393.94;7011380;28;20314;-82
2023/07/26 02:35:44;;;;;;;14.60;12.80;;;;;;;19.30;60.41;98350.44;7005364;28;20678;-83
2023/07/26 02:39:06;;;;;;;12.40;11.27;;;;;;;19.77;60.29;98403.81;7002485;28;20222;-81
2023/07/26 02:42:28;;;;;;;14.00;12.60;;;;;;;19.61;60.99;98412.28;7002109;28;20213;-81
2023/07/26 02:45:51;;;;;;;13.17;11.87;;;;;;;19.49;60.84;98393.41;7002960;28;20299;-82
2023/07/26 02:49:12;;;;;;;12.67;11.20;;;;;;;19.81;60.04;98409.56;7001911;28;20233;-82
2023/07/26 02:52:34;;;;;;;13.90;11.97;;;;;;;19.17;60.55;98357.22;7004442;28;20230;-82
2023/07/26 02:55:55;;;;;;;12.60;11.33;;;;;;;19.65;60.56;98407.91;7005632;28;20426;-82
2023/07/26 02:59:18;;;;;;;12.87;10.73;;;;;;;19.73;60.55;98421.88;7005182;28;20233;-82
2023/07/26 03:02:41;;;;;;;11.67;10.47;;;;;;;19.48;59.92;98394.50;7005606;28;20206;-83
2023/07/26 03:06:03;;;;;;;13.07;10.07;;;;;;;19.44;60.28;98426.19;7004735;28;20663;-83
2023/07/26 03:09:24;;;;;;;11.90;10.67;;;;;;;19.34;61.01;98434.38;7004753;28;20230;-83
2023/07/26 03:12:46;;;;;;;11.20;10.10;;;;;;;19.48;60.78;98429.22;7003179;28;20234;-83
2023/07/26 03:16:07;;;;;;;12.33;10.70;;;;;;;19.58;60.16;98442.91;6981523;28;20214;-84
2023/07/26 03:19:30;;;;;;;11.90;10.73;;;;;;;19.46;60.55;98445.88;6973237;28;20716;-84
2023/07/26 03:22:52;;;;;;;11.70;10.50;;;;;;;19.41;60.90;98450.53;6987050;28;20244;-82
2023/07/26 03:26:14;;;;;;;10.67;9.67;;;;;;;19.34;59.93;98453.50;6987784;28;20213;-81
2023/07/26 03:29:35;;;;;;;12.43;10.60;;;;;;;19.04;61.96;98460.78;6983364;28;20230;-83
2023/07/26 03:32:56;;;;;;;13.60;10.77;;;;;;;19.22;61.42;98455.66;6977548;28;20226;-82
2023/07/26 03:36:19;;;;;;;12.07;10.60;;;;;;;19.21;61.49;98469.63;6974920;28;20295;-82
2023/07/26 03:39:41;;;;;;;11.73;9.37;;;;;;;19.01;60.68;98428.50;6974356;28;20230;-82
2023/07/26 03:43:03;;;;;;;12.60;10.50;;;;;;;19.03;59.78;98456.38;6975266;28;20267;-83
2023/07/26 03:46:24;;;;;;;11.10;9.53;;;;;;;19.05;60.64;98446.81;6974142;28;20665;-82
2023/07/26 03:49:46;;;;;;;11.60;9.10;;;;;;;18.91;60.59;98461.25;6974313;28;20305;-82
2023/07/26 03:53:08;;;;;;;9.00;8.20;;;;;;;18.97;60.21;98466.47;6972907;28;20283;-83
2023/07/26 03:56:30;;;;;;;9.43;8.13;;;;;;;18.55;60.31;98386.53;6973842;28;20324;-83
2023/07/26 03:59:51;;;;;;;10.53;8.37;;;;;;;18.90;60.49;98476.84;6973885;28;20256;-83
2023/07/26 04:03:14;;;;;;;15.10;9.37;;;;;;;18.71;60.11;98464.72;6972916;28;20698;-83
2023/07/26 04:06:35;;;;;;;13.43;9.17;;;;;;;18.62;61.21;98471.75;6974262;28;20252;-82
2023/07/26 04:10:00;;;;;;;12.77;9.60;;;;;;;18.39;61.49;98479.53;6973818;28;20648;-83
2023/07/26 04:13:21;;;;;;;12.33;9.97;;;;;;;18.60;61.06;98486.75;6973866;28;20307;-82
2023/07/26 04:16:43;;;;;;;10.87;9.80;;;;;;;18.52;61.47;98485.34;6973738;28;20581;-82
2023/07/26 04:20:05;;;;;;;10.27;9.27;;;;;;;18.67;60.64;98454.56;6974211;28;20323;-83
2023/07/26 04:23:27;;;;;;;11.10;9.70;;;;;;;18.88;60.73;98487.19;6974315;28;20296;-82
2023/07/26 04:26:50;;;;;;;9.57;8.67;;;;;;;18.91;60.20;98486.66;6977971;28;20654;-82
2023/07/26 04:30:11;;;;;;;9.67;8.77;;;;;;;18.76;60.43;98499.44;6979198;28;20229;-83
2023/07/26 04:33:33;;;;;;;11.53;10.27;;;;;;;18.50;61.98;98501.19;6978832;28;20253;-82
2023/07/26 04:36:54;;;;;;;11.60;10.40;;;;;;;18.61;62.64;98502.06;6978387;28;20234;-82
2023/07/26 04:40:16;;;;;;;12.30;10.73;;;;;;;18.84;62.51;98501.66;6978600;28;20229;-83
2023/07/26 04:43:39;;;;;;;11.10;10.00;;;;;;;19.15;61.52;98504.25;6978592;28;20285;-83
2023/07/26 04:47:00;;;;;;;9.47;8.63;;;;;;;19.44;60.15;98505.50;6981591;28;20218;-83
2023/07/26 04:50:22;;;;;;;8.73;7.77;;;;;;;19.43;59.75;98508.50;6977040;28;20315;-83
2023/07/26 04:53:43;;;;;;;8.87;8.00;;;;;;;19.54;59.50;98504.69;6976517;28;20238;-83
2023/07/26 04:57:05;;;;;;;9.03;7.80;;;;;;;19.74;59.23;98508.31;6983782;28;20344;-82
2023/07/26 05:00:28;;;;;;;8.50;7.60;;;;;;;19.73;59.06;98509.41;6984799;28;20269;-82
2023/07/26 05:03:50;;;;;;;9.80;8.17;;;;;;;19.71;59.72;98506.13;6979967;28;20202;-83
2023/07/26 05:07:11;;;;;;;8.97;8.07;;;;;;;19.42;59.65;98504.97;6977658;28;20229;-83
2023/07/26 05:10:33;;;;;;;9.27;7.37;;;;;;;19.76;59.09;98494.38;6976718;28;20321;-83
2023/07/26 05:13:54;;;;;;;8.53;7.73;;;;;;;20.07;58.37;98504.28;6976987;28;20248;-83
2023/07/26 05:17:18;;;;;;;9.80;8.23;;;;;;;19.98;58.67;98516.84;6973818;28;20282;-83
2023/07/26 05:20:39;;;;;;;9.70;8.23;;;;;;;19.91;59.11;98505.31;6973177;28;20284;-84
2023/07/26 05:24:01;;;;;;;15.33;9.63;;;;;;;19.82;59.62;98520.63;6980908;28;20276;-83
2023/07/26 05:27:22;;;;;;;10.40;8.60;;;;;;;20.18;59.03;98523.19;6982243;28;20359;-83
2023/07/26 05:30:44;;;;;;;9.67;8.53;;;;;;;19.79;58.66;98532.09;6978669;28;20695;-84
2023/07/26 05:34:07;;;;;;;8.57;7.67;;;;;;;19.81;58.93;98516.25;6975377;28;20211;-83
2023/07/26 05:37:34;;;;;;;8.77;7.13;;;;;;;19.75;58.60;98500.94;6973520;28;20226;-83
2023/07/26 05:41:03;;;;;;;8.17;7.03;;;;;;;19.99;58.84;98537.63;6974862;28;20234;-84
2023/07/26 05:44:24;;;;;;;8.20;7.40;;;;;;;19.97;58.73;98534.31;6974452;28;20246;-84
2023/07/26 05:47:46;;;;;;;8.43;6.73;;;;;;;19.62;58.73;98543.28;6973714;28;20267;-84
2023/07/26 05:51:08;;;;;;;7.03;6.37;;;;;;;19.88;57.66;98534.03;6975054;28;20268;-84
2023/07/26 05:54:30;;;;;;;6.73;5.90;;;;;;;19.70;57.72;98544.69;6983926;28;20318;-83
2023/07/26 05:57:51;;;;;;;7.27;5.63;;;;;;;20.19;56.69;98529.47;6986794;28;20270;-83
2023/07/26 06:01:13;;;;;;;5.93;5.43;;;;;;;20.17;56.00;98543.41;6984055;28;20222;-83
2023/07/26 06:04:35;;;;;;;7.37;6.07;;;;;;;20.25;55.06;98539.31;6985186;28;20266;-82
2023/07/26 06:07:57;;;;;;;8.57;4.77;;;;;;;20.20;56.04;98523.72;6988666;28;20222;-83
2023/07/26 06:11:19;;;;;;;5.40;4.90;;;;;;;20.19;54.75;98537.69;6983992;28;20780;-84
2023/07/26 06:14:41;;;;;;;6.90;5.40;;;;;;;20.22;56.83;98545.34;6977241;28;20341;-84
2023/07/26 06:18:02;;;;;;;6.10;5.50;;;;;;;20.35;56.15;98551.09;6976746;28;20204;-84
2023/07/26 06:21:24;;;;;;;6.00;5.50;;;;;;;20.26;56.60;98546.44;6977454;28;20276;-83
2023/07/26 06:24:46;;;;;;;6.33;5.03;;;;;;;19.83;55.71;98501.22;6977463;28;20202;-84
2023/07/26 06:28:08;;;;;;;6.30;4.73;;;;;;;20.19;55.84;98559.56;6975186;28;20270;-84
2023/07/26 06:31:29;;;;;;;7.10;4.33;;;;;;;20.14;54.88;98567.78;6974996;28;20226;-84
2023/07/26 06:34:51;;;;;;;7.03;4.73;;;;;;;20.25;55.03;98548.38;6974251;28;20766;-85
2023/07/26 06:38:12;;;;;;;5.40;4.43;;;;;;;19.95;54.56;98487.25;6974666;28;20256;-84
2023/07/26 06:41:35;;;;;;;4.87;4.10;;;;;;;20.22;55.11;98545.34;6972791;28;20301;-84
2023/07/26 06:44:57;;;;;;;4.97;4.30;;;;;;;20.40;54.27;98561.25;6975275;28;20294;-84
2023/07/26 06:48:18;;;;;;;7.00;4.20;;;;;;;20.42;54.43;98550.81;6974496;28;20206;-83
2023/07/26 06:51:40;;;;;;;6.03;4.00;;;;;;;20.52;52.96;98559.06;6962224;28;20362;-84
2023/07/26 06:55:01;;;;;;;5.37;3.80;;;;;;;20.54;52.81;98557.69;6974658;28;20222;-83
2023/07/26 06:58:24;;;;;;;5.73;3.53;;;;;;;21.23;51.50;98553.16;6974464;28;20592;-83
2023/07/26 07:01:46;;;;;;;4.77;3.67;;;;;;;21.26;51.25;98549.88;6973837;28;20300;-83
2023/07/26 07:05:07;;;;;;;4.70;3.80;;;;;;;21.02;50.37;98568.06;6974528;28;20293;-83
2023/07/26 07:08:29;;;;;;;4.33;3.50;;;;;;;21.08;52.89;98574.34;6976239;28;20305;-84
2023/07/26 07:11:51;;;;;;;5.67;3.47;;;;;;;21.63;50.83;98551.09;6977814;28;20222;-84
2023/07/26 07:15:14;;;;;;;4.00;3.60;;;;;;;21.51;50.25;98561.59;6967501;28;20285;-84
2023/07/26 07:18:35;;;;;;;7.17;3.17;;;;;;;21.67;50.00;98567.84;6987135;28;20203;-84
2023/07/26 07:21:57;;;;;;;4.27;3.70;;;;;;;20.89;52.41;98522.03;6982572;28;20285;-84
2023/07/26 07:25:19;;;;;;;4.37;3.80;;;;;;;21.29;52.22;98574.00;6983628;28;20198;-82
2023/07/26 07:28:40;;;;;;;4.87;3.90;;;;;;;20.67;52.93;98503.13;6972124;28;20289;-82
2023/07/26 07:32:03;;;;;;;8.20;3.97;;;;;;;20.16;55.39;98579.31;6971637;28;20293;-82
2023/07/26 07:35:25;;;;;;;7.13;3.90;;;;;;;19.75;55.68;98542.78;6963940;28;20320;-81
2023/07/26 07:38:47;;;;;;;7.27;3.60;;;;;;;19.68;55.94;98563.25;6991875;28;20288;-84
2023/07/26 07:42:08;;;;;;;5.73;4.10;;;;;;;20.06;56.46;98576.50;6998108;28;20296;-84
2023/07/26 07:45:30;;;;;;;6.87;4.27;;;;;;;20.37;56.15;98572.72;6997955;28;20239;-83
2023/07/26 07:48:52;;;;;;;6.27;4.10;;;;;;;19.98;56.13;98583.31;6971052;28;20206;-82
2023/07/26 07:52:14;;;;;;;5.27;4.20;;;;;;;20.12;56.97;98592.72;6972161;28;20259;-82
2023/07/26 07:55:38;;;;;;;4.67;4.10;;;;;;;19.68;55.70;98495.72;6976658;28;20222;-81
2023/07/26 07:58:59;;;;;;;4.57;3.33;;;;;;;20.01;54.94;98591.00;6984131;28;20281;-81
2023/07/26 08:02:22;;;;;;;5.33;3.90;;;;;;;19.82;56.16;98597.25;6977919;28;20340;-82
2023/07/26 08:05:45;;;;;;;6.53;4.10;;;;;;;19.75;56.04;98583.81;6979521;28;20229;-82
2023/07/26 08:09:06;;;;;;;4.20;3.83;;;;;;;20.22;55.59;98589.16;6980271;28;20253;-82
2023/07/26 08:12:28;;;;;;;6.33;3.80;;;;;;;20.47;55.18;98591.91;6978753;28;20345;-82
2023/07/26 08:15:50;;;;;;;6.67;4.40;;;;;;;20.39;54.34;98595.22;6950118;28;20713;-82
2023/07/26 08:19:12;;;;;;;5.53;3.67;;;;;;;20.44;54.29;98592.44;6970282;28;20305;-82
2023/07/26 08:22:35;;;;;;;5.03;3.70;;;;;;;20.70;53.90;98592.16;6977480;28;20636;-82
2023/07/26 08:25:56;;;;;;;7.60;3.90;;;;;;;20.58;53.57;98596.31;6975947;28;20228;-81
2023/07/26 08:29:18;;;;;;;6.47;3.70;;;;;;;20.95;52.73;98573.00;6977370;28;20320;-83
2023/07/26 08:32:39;;;;;;;6.47;4.17;;;;;;;20.79;53.21;98601.50;6977839;28;20208;-81
2023/07/26 08:36:01;;;;;;;5.70;3.70;;;;;;;20.73;54.01;98601.75;6975945;28;20744;-81
2023/07/26 08:39:24;;;;;;;5.23;3.70;;;;;;;20.29;54.04;98617.09;6973685;28;20322;-87
2023/07/26 08:42:46;;;;;;;6.80;3.67;;;;;;;20.46;53.96;98609.44;6976183;28;20261;-81
2023/07/26 08:46:09;;;;;;;4.60;3.80;;;;;;;20.47;54.09;98586.44;6961927;28;20203;-81
2023/07/26 08:49:31;;;;;;;5.20;4.00;;;;;;;20.83;53.26;98616.28;6948198;28;20242;-81
2023/07/26 08:52:52;;;;;;;5.77;3.90;;;;;;;20.55;54.12;98605.06;6947381;28;20767;-81
2023/07/26 08:56:15;;;;;;;5.37;3.37;;;;;;;20.87;52.02;98605.59;6945189;28;20636;-81
2023/07/26 08:59:37;;;;;;;5.47;3.43;;;;;;;20.87;51.94;98602.88;6947093;28;20314;-81
2023/07/26 09:03:00;;;;;;;4.50;3.00;;;;;;;20.69;52.17;98606.97;6948312;28;20209;-81
2023/07/26 09:06:22;;;;;;;3.10;2.80;;;;;;;20.53;51.61;98610.00;6947920;28;20199;-81
2023/07/26 09:09:43;;;;;;;3.93;2.77;;;;;;;20.78;51.35;98600.66;6955130;28;20291;-81
2023/07/26 09:13:10;;;;;;;3.63;2.80;;;;;;;20.64;52.18;98614.38;6973825;28;20761;-83
2023/07/26 09:16:33;;;;;;;3.77;2.60;;;;;;;21.05;51.48;98599.56;6974882;28;20371;-81
2023/07/26 09:19:54;;;;;;;2.60;2.40;;;;;;;21.08;50.02;98592.41;6975837;28;20229;-81
2023/07/26 09:23:16;;;;;;;3.30;2.10;;;;;;;21.24;47.64;98605.00;6976596;28;20352;-81
2023/07/26 09:26:40;;;;;;;2.90;1.90;;;;;;;20.87;47.83;98583.69;6981319;28;20202;-81
2023/07/26 09:30:03;;;;;;;1.80;1.70;;;;;;;21.22;48.21;98600.09;6981098;28;20245;-81
2023/07/26 09:33:26;;;;;;;2.00;1.90;;;;;;;21.58;46.11;98595.03;6979874;28;20266;-81
2023/07/26 09:36:48;;;;;;;2.27;1.80;;;;;;;21.62;47.59;98596.13;6974444;28;20224;-81
2023/07/26 09:40:11;;;;;;;1.60;1.50;;;;;;;21.78;44.59;98566.69;6977230;28;20372;-81
2023/07/26 09:43:33;;;;;;;3.30;1.93;;;;;;;21.87;45.59;98598.75;6976372;28;20190;-81
2023/07/26 09:46:57;;;;;;;1.60;1.50;;;;;;;21.52;46.26;98587.91;6975624;28;20293;-81
2023/07/26 09:50:25;;;;;;;1.60;1.50;;;;;;;21.46;46.52;98590.94;6976421;28;20723;-81
2023/07/26 09:53:47;;;;;;;1.70;1.60;;;;;;;21.81;45.57;98596.31;6976364;28;20234;-81
2023/07/26 09:57:10;;;;;;;3.13;1.90;;;;;;;21.32;46.38;98592.66;6977048;28;20217;-80
2023/07/26 10:00:33;;;;;;;2.97;1.30;;;;;;;21.24;48.87;98605.00;6975002;28;20791;-81
2023/07/26 10:03:56;;;;;;;1.80;1.40;;;;;;;21.63;47.78;98597.75;6975717;28;20210;-82
2023/07/26 10:07:18;;;;;;;2.57;1.50;;;;;;;21.33;45.73;98534.78;6973534;28;20199;-81
2023/07/26 10:10:39;;;;;;;1.30;1.20;;;;;;;21.37;47.10;98589.91;6974158;28;20227;-81
2023/07/26 10:14:01;;;;;;;1.50;1.40;;;;;;;21.29;47.55;98593.19;6973012;28;20368;-81
2023/07/26 10:17:23;;;;;;;1.63;1.53;;;;;;;20.54;50.28;98556.84;6973144;28;20301;-82
2023/07/26 10:20:47;;;;;;;1.70;1.60;;;;;;;20.92;51.74;98597.41;6973777;28;20711;-82
2023/07/26 10:24:09;;;;;;;1.63;1.53;;;;;;;21.20;51.14;98575.69;6973352;28;20202;-82
2023/07/26 10:27:30;;;;;;;1.67;1.57;;;;;;;21.67;52.36;98601.59;6976102;28;20285;-86
2023/07/26 10:30:52;;;;;;;1.40;1.30;;;;;;;22.87;50.11;98586.22;6981430;28;20757;-82
2023/07/26 10:34:20;;;;;;;1.93;1.67;;;;;;;23.04;46.89;98592.94;6974408;28;20321;-82
2023/07/26 10:37:47;;;;;;;1.70;1.60;;;;;;;22.79;48.12;98600.63;6977214;28;20288;-82
2023/07/26 10:41:22;;;;;;;1.60;1.50;;;;;;;21.89;49.42;98596.53;6974374;28;20642;-81
2023/07/26 10:44:43;;;;;;;1.87;1.70;;;;;;;21.74;50.17;98602.13;6983666;28;20221;-82
2023/07/26 10:48:05;;;;;;;2.03;1.90;;;;;;;22.21;49.46;98596.91;6980506;28;20678;-81
2023/07/26 10:51:31;;;;;;;1.93;1.80;;;;;;;21.74;49.04;98613.09;6976159;28;20320;-82
2023/07/26 10:54:54;;;;;;;2.23;1.50;;;;;;;22.45;46.69;98603.38;6973211;28;20218;-87
2023/07/26 10:58:15;;;;;;;5.30;1.80;;;;;;;21.92;48.54;98609.72;6972399;28;20344;-84
2023/07/26 11:01:38;;;;;;;2.03;1.87;;;;;;;22.19;47.64;98598.31;6973242;28;20234;-84
2023/07/26 11:05:01;;;;;;;3.03;2.20;;;;;;;22.76;44.75;98607.50;6973126;28;20265;-82
2023/07/26 11:08:41;;;;;;;2.67;2.47;;;;;;;22.57;43.71;98583.75;6966346;28;20228;-82
2023/07/26 11:12:11;;;;;;;3.07;2.37;;;;;;;23.12;42.78;98591.50;6973214;28;20278;-83
2023/07/26 11:15:34;;;;;;;2.67;2.20;;;;;;;23.57;41.48;98580.00;6977536;28;20214;-83
2023/07/26 11:18:55;;;;;;;2.20;2.00;;;;;;;23.38;42.42;98598.41;6976356;28;20216;-83
2023/07/26 11:22:18;;;;;;;2.07;1.87;;;;;;;22.77;43.01;98589.91;6972760;28;20250;-81
2023/07/26 11:25:40;;;;;;;4.60;1.67;;;;;;;22.93;43.16;98588.66;6978419;28;20356;-82
2023/07/26 11:29:03;;;;;;;2.53;1.90;;;;;;;24.03;40.61;98570.88;6977993;28;20284;-83
2023/07/26 11:32:25;;;;;;;3.70;2.03;;;;;;;24.84;38.99;98568.47;6977716;28;20210;-83
2023/07/26 11:35:47;;;;;;;2.33;2.00;;;;;;;24.67;38.62;98559.94;6972270;28;20256;-83
2023/07/26 11:39:18;;;;;;;3.07;2.20;;;;;;;24.72;38.30;98556.31;6972347;28;20230;-82
2023/07/26 11:42:40;;;;;;;2.00;1.90;;;;;;;24.52;38.97;98562.13;6976883;28;20211;-82
2023/07/26 11:46:03;;;;;;;2.37;2.17;;;;;;;24.63;37.90;98560.88;6974868;28;20332;-83
2023/07/26 11:49:24;;;;;;;2.67;2.20;;;;;;;25.10;36.75;98557.81;6974165;28;20254;-83
2023/07/26 11:53:02;;;;;;;3.00;2.10;;;;;;;24.78;38.38;98552.34;6973788;28;20221;-82
2023/07/26 11:56:28;;;;;;;3.50;2.10;;;;;;;24.34;37.77;98532.66;6976385;28;20265;-83
2023/07/26 11:59:49;;;;;;;3.83;2.27;;;;;;;25.33;35.37;98535.59;6957849;28;20283;-83
2023/07/26 12:03:12;;;;;;;3.23;2.20;;;;;;;25.04;35.87;98545.22;6957806;28;20359;-83
2023/07/26 12:06:35;;;;;;;2.97;2.67;;;;;;;25.01;35.53;98549.41;6971570;28;20256;-83
2023/07/26 12:09:57;;;;;;;3.40;2.33;;;;;;;24.77;36.81;98567.25;6976354;28;20619;-82
2023/07/26 12:13:23;;;;;;;3.03;2.57;;;;;;;24.09;36.24;98497.25;6981043;28;20309;-84
2023/07/26 12:16:48;;;;;;;4.27;2.63;;;;;;;24.27;37.12;98568.03;6976078;28;20238;-83
2023/07/26 12:20:12;;;;;;;3.20;2.27;;;;;;;24.37;36.61;98534.81;6977938;28;20730;-83
2023/07/26 12:23:49;;;;;;;3.77;2.10;;;;;;;25.03;35.89;98544.44;6976650;28;20829;-83
2023/07/26 12:27:11;;;;;;;2.93;2.30;;;;;;;24.86;34.67;98560.75;6977971;28;20194;-83
2023/07/26 12:30:32;;;;;;;4.57;2.50;;;;;;;26.00;35.44;98555.97;6993669;28;20310;-84
2023/07/26 12:33:55;;;;;;;2.20;2.00;;;;;;;26.05;34.45;98553.94;6975937;28;20683;-83
2023/07/26 12:37:29;;;;;;;2.27;2.07;;;;;;;26.07;35.17;98548.91;6975695;28;20222;-83
2023/07/26 12:40:52;;;;;;;4.97;2.60;;;;;;;25.50;35.01;98546.84;6984490;28;20222;-83
2023/07/26 12:44:14;;;;;;;2.40;2.20;;;;;;;24.09;37.80;98511.00;6973873;28;20213;-83
2023/07/26 12:47:36;;;;;;;3.13;2.53;;;;;;;24.01;39.48;98561.28;6978192;28;20296;-84
2023/07/26 12:50:58;;;;;;;2.60;2.40;;;;;;;23.77;38.69;98563.25;6983079;28;20229;-82
2023/07/26 12:54:21;;;;;;;3.23;2.27;;;;;;;24.05;38.43;98556.78;6984356;28;20198;-83
2023/07/26 12:57:42;;;;;;;2.87;2.53;;;;;;;23.99;37.07;98552.47;6978638;28;20570;-84
2023/07/26 13:01:04;;;;;;;3.87;2.63;;;;;;;23.92;37.36;98563.88;6992721;28;20260;-84
2023/07/26 13:04:25;;;;;;;4.17;2.80;;;;;;;24.49;37.01;98558.03;6995342;28;20228;-85
2023/07/26 13:07:48;;;;;;;6.13;2.80;;;;;;;24.59;35.37;98560.66;6993931;28;20223;-85
2023/07/26 13:11:13;;;;;;;3.30;3.00;;;;;;;24.14;35.42;98555.81;6997426;28;20233;-83
2023/07/26 13:14:34;;;;;;;3.10;2.53;;;;;;;23.66;38.24;98553.47;6994598;28;20212;-84
2023/07/26 13:17:56;;;;;;;3.50;2.70;;;;;;;23.44;40.56;98581.53;6991597;28;20230;-84
2023/07/26 13:21:17;;;;;;;3.40;2.80;;;;;;;22.75;42.24;98578.38;6979999;28;20282;-84
2023/07/26 13:24:39;;;;;;;3.40;3.10;;;;;;;22.74;41.82;98575.91;6975378;28;20265;-83
2023/07/26 13:28:02;;;;;;;3.30;3.00;;;;;;;23.05;42.01;98608.34;6981432;28;20296;-83
2023/07/26 13:31:23;;;;;;;3.03;2.80;;;;;;;22.64;41.42;98563.09;6974346;28;20229;-84
2023/07/26 13:34:45;;;;;;;2.90;2.30;;;;;;;23.59;41.01;98605.31;6971690;28;20309;-83
2023/07/26 13:38:06;;;;;;;4.70;2.50;;;;;;;23.65;40.18;98574.66;6987014;28;20684;-81
2023/07/26 13:41:28;;;;;;;3.50;2.63;;;;;;;23.66;40.99;98601.06;6982307;28;20305;-83
2023/07/26 13:44:51;;;;;;;2.93;2.73;;;;;;;23.85;40.70;98595.63;6982382;28;20364;-84
2023/07/26 13:48:12;;;;;;;3.20;2.63;;;;;;;24.52;39.95;98595.19;6998080;28;20726;-83
2023/07/26 13:51:34;;;;;;;4.80;2.57;;;;;;;23.69;40.97;98572.97;6973317;28;20363;-82
2023/07/26 13:54:55;;;;;;;3.40;2.97;;;;;;;24.12;39.46;98588.38;6966100;28;20319;-83
2023/07/26 13:58:17;;;;;;;4.07;2.80;;;;;;;24.12;39.36;98555.31;6976031;28;20292;-84
2023/07/26 14:01:40;;;;;;;4.43;3.00;;;;;;;24.49;39.08;98571.00;6974746;28;20279;-83
2023/07/26 14:05:02;;;;;;;3.17;2.60;;;;;;;24.31;38.69;98583.66;6973782;28;20228;-83
2023/07/26 14:08:23;;;;;;;5.30;3.13;;;;;;;24.59;38.59;98576.41;6975210;28;20220;-83
2023/07/26 14:11:45;;;;;;;2.70;2.47;;;;;;;24.89;38.75;98579.44;6963081;28;20246;-83
2023/07/26 14:15:08;;;;;;;3.00;2.70;;;;;;;23.94;37.32;98589.19;6972695;28;20221;-84
2023/07/26 14:18:31;;;;;;;2.73;2.40;;;;;;;24.26;36.56;98583.75;6975613;28;20209;-83
2023/07/26 14:21:53;;;;;;;4.83;2.70;;;;;;;24.70;35.52;98588.88;6976876;28;20235;-84
2023/07/26 14:25:14;;;;;;;3.60;2.40;;;;;;;24.63;34.71;98582.91;6975668;28;20342;-83
2023/07/26 14:28:36;;;;;;;3.47;3.00;;;;;;;24.86;35.02;98587.50;6976163;28;20287;-82
2023/07/26 14:31:57;;;;;;;4.27;2.50;;;;;;;25.56;34.14;98589.78;6974491;28;20305;-84
2023/07/26 14:35:20;;;;;;;4.63;3.13;;;;;;;25.73;33.45;98578.91;6958824;28;20253;-83
2023/07/26 14:38:42;;;;;;;5.23;2.97;;;;;;;24.93;33.57;98518.94;6946056;28;20195;-82
2023/07/26 14:42:04;;;;;;;3.90;2.40;;;;;;;25.65;33.56;98581.59;6962692;28;20306;-83
2023/07/26 14:45:25;;;;;;;3.87;2.70;;;;;;;24.91;32.63;98582.72;6960018;28;20603;-83
2023/07/26 14:48:47;;;;;;;3.60;2.90;;;;;;;24.99;33.13;98570.97;6973400;28;20289;-83
2023/07/26 14:52:10;;;;;;;2.67;2.47;;;;;;;24.94;33.78;98573.81;6974692;28;20280;-84
2023/07/26 14:55:32;;;;;;;2.90;2.70;;;;;;;25.06;32.87;98574.16;6972240;28;20312;-83
2023/07/26 14:58:53;;;;;;;3.00;2.60;;;;;;;24.56;34.35;98582.47;6972274;28;20206;-83
2023/07/26 15:02:18;;;;;;;2.87;2.60;;;;;;;24.24;34.26;98571.41;6972830;28;20212;-84
2023/07/26 15:05:43;;;;;;;4.27;2.83;;;;;;;24.64;34.52;98559.75;6958335;28;20230;-84
2023/07/26 15:09:06;;;;;;;5.40;2.80;;;;;;;25.35;33.83;98576.66;6943991;28;20224;-83
2023/07/26 15:12:27;;;;;;;2.83;2.63;;;;;;;25.31;33.25;98572.91;6945395;28;20208;-83
2023/07/26 15:15:49;;;;;;;3.37;2.70;;;;;;;24.78;34.11;98580.72;6943681;28;20232;-84
2023/07/26 15:19:10;;;;;;;2.80;2.60;;;;;;;24.84;33.17;98581.47;6952303;28;20277;-83
2023/07/26 15:22:32;;;;;;;4.87;2.73;;;;;;;25.08;32.99;98584.91;6972387;28;20333;-84
2023/07/26 15:25:55;;;;;;;3.90;2.80;;;;;;;25.10;33.41;98580.72;6971723;28;20299;-82
2023/07/26 15:29:16;;;;;;;3.00;2.70;;;;;;;24.86;33.73;98588.31;6973999;28;20309;-83
2023/07/26 15:32:38;;;;;;;3.63;2.63;;;;;;;24.37;34.42;98581.66;6975848;28;20280;-83
2023/07/26 15:36:00;;;;;;;3.80;2.93;;;;;;;24.14;35.62;98582.56;6973847;28;20236;-83
2023/07/26 15:39:21;;;;;;;2.93;2.50;;;;;;;24.64;35.22;98588.16;6973411;28;20314;-82
2023/07/26 15:42:44;;;;;;;3.20;2.90;;;;;;;24.42;35.79;98598.13;6974527;28;20371;-83
2023/07/26 15:46:05;;;;;;;6.10;3.00;;;;;;;23.85;36.01;98568.06;6978884;28;20266;-84